sensor_id;sensor_type;location;lat;lon;timestamp;pressure;altitude;pressure_sealevel;temperature;humidity
12358;BME280;6243;51.244;6.774;2023-11-21T00:02:12;115150.97;;;-141.28;47.58
12358;BME280;6243;51.244;6.774;2023-11-21T00:04:37;115150.97;;;-141.28;47.64
12358;BME280;6243;51.244;6.774;2023-11-21T00:07:03;115150.97;;;-141.28;47.64
12358;BME280;6243;51.244;6.774;2023-11-21T00:09:28;115150.97;;;-141.28;47.80
12358;BME280;6243;51.244;6.774;2023-11-21T00:11:54;115150.97;;;-141.28;47.82
12358;BME280;6243;51.244;6.774;2023-11-21T00:14:20;115150.97;;;-141.28;47.80
12358;BME280;6243;51.244;6.774;2023-11-21T00:16:47;115150.97;;;-141.28;47.99
12358;BME280;6243;51.244;6.774;2023-11-21T00:19:12;115150.97;;;-141.28;48.22
12358;BME280;6243;51.244;6.774;2023-11-21T00:21:38;115150.97;;;-141.28;48.25
12358;BME280;6243;51.244;6.774;2023-11-21T00:24:04;115150.97;;;-141.28;48.19
12358;BME280;6243;51.244;6.774;2023-11-21T00:26:29;115150.97;;;-141.28;48.30
12358;BME280;6243;51.244;6.774;2023-11-21T00:28:55;115150.97;;;-141.28;48.23
12358;BME280;6243;51.244;6.774;2023-11-21T00:31:20;115150.97;;;-141.28;48.21
12358;BME280;6243;51.244;6.774;2023-11-21T00:33:47;115150.97;;;-141.28;48.19
12358;BME280;6243;51.244;6.774;2023-11-21T00:36:13;115150.97;;;-141.28;48.30
12358;BME280;6243;51.244;6.774;2023-11-21T00:38:38;115150.97;;;-141.28;48.24
12358;BME280;6243;51.244;6.774;2023-11-21T00:41:04;115150.97;;;-141.28;48.20
12358;BME280;6243;51.244;6.774;2023-11-21T00:43:30;115150.97;;;-141.28;48.15
12358;BME280;6243;51.244;6.774;2023-11-21T00:45:56;115150.97;;;-141.28;48.11
12358;BME280;6243;51.244;6.774;2023-11-21T00:48:21;115150.97;;;-141.28;48.12
12358;BME280;6243;51.244;6.774;2023-11-21T00:50:48;115150.97;;;-141.28;48.15
12358;BME280;6243;51.244;6.774;2023-11-21T00:53:14;115150.97;;;-141.28;48.19
12358;BME280;6243;51.244;6.774;2023-11-21T00:55:39;115150.97;;;-141.28;48.22
12358;BME280;6243;51.244;6.774;2023-11-21T00:58:05;115150.97;;;-141.28;48.11
12358;BME280;6243;51.244;6.774;2023-11-21T01:00:30;115150.97;;;-141.28;48.21
12358;BME280;6243;51.244;6.774;2023-11-21T01:02:56;115150.97;;;-141.28;48.34
12358;BME280;6243;51.244;6.774;2023-11-21T01:05:22;115150.97;;;-141.28;48.29
12358;BME280;6243;51.244;6.774;2023-11-21T01:07:48;115150.97;;;-141.28;48.35
12358;BME280;6243;51.244;6.774;2023-11-21T01:10:14;115150.97;;;-141.28;48.28
12358;BME280;6243;51.244;6.774;2023-11-21T01:12:40;115150.97;;;-141.28;48.03
12358;BME280;6243;51.244;6.774;2023-11-21T01:15:06;115150.97;;;-141.28;48.03
12358;BME280;6243;51.244;6.774;2023-11-21T01:17:32;115150.97;;;-141.28;47.93
12358;BME280;6243;51.244;6.774;2023-11-21T01:19:57;115150.97;;;-141.28;48.07
12358;BME280;6243;51.244;6.774;2023-11-21T01:22:23;115150.97;;;-141.28;48.05
12358;BME280;6243;51.244;6.774;2023-11-21T01:24:50;115150.97;;;-141.28;47.80
12358;BME280;6243;51.244;6.774;2023-11-21T01:27:15;115150.97;;;-141.28;47.80
12358;BME280;6243;51.244;6.774;2023-11-21T01:29:41;115150.97;;;-141.28;47.59
12358;BME280;6243;51.244;6.774;2023-11-21T01:32:06;115150.97;;;-141.28;47.76
12358;BME280;6243;51.244;6.774;2023-11-21T01:34:32;115150.97;;;-141.28;47.68
12358;BME280;6243;51.244;6.774;2023-11-21T01:36:58;115150.97;;;-141.28;47.80
12358;BME280;6243;51.244;6.774;2023-11-21T01:39:24;115150.97;;;-141.28;47.70
12358;BME280;6243;51.244;6.774;2023-11-21T01:41:51;115150.97;;;-141.28;47.65
12358;BME280;6243;51.244;6.774;2023-11-21T01:44:17;115150.97;;;-141.28;47.72
12358;BME280;6243;51.244;6.774;2023-11-21T01:46:43;115150.97;;;-141.28;47.77
12358;BME280;6243;51.244;6.774;2023-11-21T01:49:10;115150.97;;;-141.28;47.77
12358;BME280;6243;51.244;6.774;2023-11-21T01:51:36;115150.97;;;-141.28;47.43
12358;BME280;6243;51.244;6.774;2023-11-21T01:54:02;115150.97;;;-141.28;47.29
12358;BME280;6243;51.244;6.774;2023-11-21T01:56:27;115150.97;;;-141.28;47.35
12358;BME280;6243;51.244;6.774;2023-11-21T01:58:56;115150.97;;;-141.28;47.22
12358;BME280;6243;51.244;6.774;2023-11-21T02:01:21;115150.97;;;-141.28;47.32
12358;BME280;6243;51.244;6.774;2023-11-21T02:03:47;115150.97;;;-141.28;47.24
12358;BME280;6243;51.244;6.774;2023-11-21T02:06:13;115150.97;;;-141.28;47.32
12358;BME280;6243;51.244;6.774;2023-11-21T02:08:38;115150.97;;;-141.28;47.24
12358;BME280;6243;51.244;6.774;2023-11-21T02:11:04;115150.97;;;-141.28;47.39
12358;BME280;6243;51.244;6.774;2023-11-21T02:13:30;115150.97;;;-141.28;47.20
12358;BME280;6243;51.244;6.774;2023-11-21T02:15:57;115150.97;;;-141.28;47.35
12358;BME280;6243;51.244;6.774;2023-11-21T02:18:23;115150.97;;;-141.28;47.57
12358;BME280;6243;51.244;6.774;2023-11-21T02:20:48;115150.97;;;-141.28;47.65
12358;BME280;6243;51.244;6.774;2023-11-21T02:23:15;115150.97;;;-141.28;47.63
12358;BME280;6243;51.244;6.774;2023-11-21T02:25:41;115150.97;;;-141.28;47.82
12358;BME280;6243;51.244;6.774;2023-11-21T02:28:06;115150.97;;;-141.28;47.80
12358;BME280;6243;51.244;6.774;2023-11-21T02:30:32;115150.97;;;-141.28;47.73
12358;BME280;6243;51.244;6.774;2023-11-21T02:32:58;115150.97;;;-141.28;47.85
12358;BME280;6243;51.244;6.774;2023-11-21T02:35:24;115150.97;;;-141.28;47.83
12358;BME280;6243;51.244;6.774;2023-11-21T02:37:50;115150.97;;;-141.28;47.90
12358;BME280;6243;51.244;6.774;2023-11-21T02:40:17;115150.97;;;-141.28;48.24
12358;BME280;6243;51.244;6.774;2023-11-21T02:42:42;115150.97;;;-141.28;48.07
12358;BME280;6243;51.244;6.774;2023-11-21T02:45:09;115150.97;;;-141.28;47.98
12358;BME280;6243;51.244;6.774;2023-11-21T02:47:34;115150.97;;;-141.28;48.04
12358;BME280;6243;51.244;6.774;2023-11-21T02:50:00;115150.97;;;-141.28;48.13
12358;BME280;6243;51.244;6.774;2023-11-21T02:52:25;115150.97;;;-141.28;47.92
12358;BME280;6243;51.244;6.774;2023-11-21T02:54:51;115150.97;;;-141.28;48.00
12358;BME280;6243;51.244;6.774;2023-11-21T02:57:18;115150.97;;;-141.28;48.00
12358;BME280;6243;51.244;6.774;2023-11-21T02:59:44;115150.97;;;-141.28;48.00
12358;BME280;6243;51.244;6.774;2023-11-21T03:02:09;115150.97;;;-141.28;47.93
12358;BME280;6243;51.244;6.774;2023-11-21T03:04:35;115150.97;;;-141.28;47.81
12358;BME280;6243;51.244;6.774;2023-11-21T03:07:00;115150.97;;;-141.28;47.93
12358;BME280;6243;51.244;6.774;2023-11-21T03:09:26;115150.97;;;-141.28;47.87
12358;BME280;6243;51.244;6.774;2023-11-21T03:11:52;115150.97;;;-141.28;47.85
12358;BME280;6243;51.244;6.774;2023-11-21T03:14:19;115150.97;;;-141.28;47.50
12358;BME280;6243;51.244;6.774;2023-11-21T03:16:44;115150.97;;;-141.28;47.86
12358;BME280;6243;51.244;6.774;2023-11-21T03:19:10;115150.97;;;-141.28;47.77
12358;BME280;6243;51.244;6.774;2023-11-21T03:21:35;115150.97;;;-141.28;47.79
12358;BME280;6243;51.244;6.774;2023-11-21T03:24:01;115150.97;;;-141.28;47.69
12358;BME280;6243;51.244;6.774;2023-11-21T03:26:27;115150.97;;;-141.28;48.01
12358;BME280;6243;51.244;6.774;2023-11-21T03:28:52;115150.97;;;-141.28;48.14
12358;BME280;6243;51.244;6.774;2023-11-21T03:31:19;115150.97;;;-141.28;48.02
12358;BME280;6243;51.244;6.774;2023-11-21T03:33:45;115150.97;;;-141.28;48.09
12358;BME280;6243;51.244;6.774;2023-11-21T03:36:11;115150.97;;;-141.28;48.02
12358;BME280;6243;51.244;6.774;2023-11-21T03:38:37;115150.97;;;-141.28;48.16
12358;BME280;6243;51.244;6.774;2023-11-21T03:41:02;115150.97;;;-141.28;48.02
12358;BME280;6243;51.244;6.774;2023-11-21T03:43:28;115150.97;;;-141.28;48.26
12358;BME280;6243;51.244;6.774;2023-11-21T03:45:54;115150.97;;;-141.28;48.34
12358;BME280;6243;51.244;6.774;2023-11-21T03:48:20;115150.97;;;-141.28;48.63
12358;BME280;6243;51.244;6.774;2023-11-21T03:50:46;115150.97;;;-141.28;48.33
12358;BME280;6243;51.244;6.774;2023-11-21T03:53:12;115150.97;;;-141.28;48.47
12358;BME280;6243;51.244;6.774;2023-11-21T03:55:37;115150.97;;;-141.28;48.53
12358;BME280;6243;51.244;6.774;2023-11-21T03:58:03;115150.97;;;-141.28;48.50
12358;BME280;6243;51.244;6.774;2023-11-21T04:00:28;115150.97;;;-141.28;48.35
12358;BME280;6243;51.244;6.774;2023-11-21T04:02:54;115150.97;;;-141.28;48.10
12358;BME280;6243;51.244;6.774;2023-11-21T04:05:21;115150.97;;;-141.28;47.59
12358;BME280;6243;51.244;6.774;2023-11-21T04:07:47;115150.97;;;-141.28;47.79
12358;BME280;6243;51.244;6.774;2023-11-21T04:10:12;115150.97;;;-141.28;47.85
12358;BME280;6243;51.244;6.774;2023-11-21T04:12:38;115150.97;;;-141.28;48.11
12358;BME280;6243;51.244;6.774;2023-11-21T04:15:04;115150.97;;;-141.28;48.29
12358;BME280;6243;51.244;6.774;2023-11-21T04:17:30;115150.97;;;-141.28;48.05
12358;BME280;6243;51.244;6.774;2023-11-21T04:19:55;115150.97;;;-141.28;48.20
12358;BME280;6243;51.244;6.774;2023-11-21T04:22:22;115150.97;;;-141.28;47.89
12358;BME280;6243;51.244;6.774;2023-11-21T04:24:48;115150.97;;;-141.28;47.92
12358;BME280;6243;51.244;6.774;2023-11-21T04:27:13;115150.97;;;-141.28;47.82
12358;BME280;6243;51.244;6.774;2023-11-21T04:29:39;115150.97;;;-141.28;48.08
12358;BME280;6243;51.244;6.774;2023-11-21T04:32:05;115150.97;;;-141.28;48.07
12358;BME280;6243;51.244;6.774;2023-11-21T04:34:31;115150.97;;;-141.28;48.12
12358;BME280;6243;51.244;6.774;2023-11-21T04:36:56;115150.97;;;-141.28;48.15
12358;BME280;6243;51.244;6.774;2023-11-21T04:39:23;115150.97;;;-141.28;48.13
12358;BME280;6243;51.244;6.774;2023-11-21T04:41:49;115150.97;;;-141.28;47.77
12358;BME280;6243;51.244;6.774;2023-11-21T04:44:15;115150.97;;;-141.28;47.75
12358;BME280;6243;51.244;6.774;2023-11-21T04:46:41;115150.97;;;-141.28;48.04
12358;BME280;6243;51.244;6.774;2023-11-21T04:49:06;115150.97;;;-141.28;48.18
12358;BME280;6243;51.244;6.774;2023-11-21T04:51:32;115150.97;;;-141.28;48.20
12358;BME280;6243;51.244;6.774;2023-11-21T04:53:57;115150.97;;;-141.28;48.01
12358;BME280;6243;51.244;6.774;2023-11-21T04:56:24;115150.97;;;-141.28;48.06
12358;BME280;6243;51.244;6.774;2023-11-21T04:58:50;115150.97;;;-141.28;47.94
12358;BME280;6243;51.244;6.774;2023-11-21T05:01:15;115150.97;;;-141.28;48.00
12358;BME280;6243;51.244;6.774;2023-11-21T05:03:41;115150.97;;;-141.28;48.05
12358;BME280;6243;51.244;6.774;2023-11-21T05:06:09;115150.97;;;-141.28;48.02
12358;BME280;6243;51.244;6.774;2023-11-21T05:08:35;115150.97;;;-141.28;47.87
12358;BME280;6243;51.244;6.774;2023-11-21T05:11:00;115150.97;;;-141.28;47.95
12358;BME280;6243;51.244;6.774;2023-11-21T05:13:27;115150.97;;;-141.28;48.11
12358;BME280;6243;51.244;6.774;2023-11-21T05:15:53;115150.97;;;-141.28;48.09
12358;BME280;6243;51.244;6.774;2023-11-21T05:18:18;115150.97;;;-141.28;48.07
12358;BME280;6243;51.244;6.774;2023-11-21T05:20:44;115150.97;;;-141.28;48.15
12358;BME280;6243;51.244;6.774;2023-11-21T05:23:10;115150.97;;;-141.28;48.27
12358;BME280;6243;51.244;6.774;2023-11-21T05:25:35;115150.97;;;-141.28;47.95
12358;BME280;6243;51.244;6.774;2023-11-21T05:28:01;115150.97;;;-141.28;48.17
12358;BME280;6243;51.244;6.774;2023-11-21T05:30:28;115150.97;;;-141.28;48.03
12358;BME280;6243;51.244;6.774;2023-11-21T05:32:53;115150.97;;;-141.28;48.13
12358;BME280;6243;51.244;6.774;2023-11-21T05:35:19;115150.97;;;-141.28;47.98
12358;BME280;6243;51.244;6.774;2023-11-21T05:37:45;115150.97;;;-141.28;47.85
12358;BME280;6243;51.244;6.774;2023-11-21T05:40:11;115150.97;;;-141.28;47.87
12358;BME280;6243;51.244;6.774;2023-11-21T05:42:37;115150.97;;;-141.28;47.92
12358;BME280;6243;51.244;6.774;2023-11-21T05:45:03;115150.97;;;-141.28;48.07
12358;BME280;6243;51.244;6.774;2023-11-21T05:47:30;115150.97;;;-141.28;47.87
12358;BME280;6243;51.244;6.774;2023-11-21T05:49:56;115150.97;;;-141.28;47.98
12358;BME280;6243;51.244;6.774;2023-11-21T05:52:21;115150.97;;;-141.28;48.13
12358;BME280;6243;51.244;6.774;2023-11-21T05:54:47;115150.97;;;-141.28;48.02
12358;BME280;6243;51.244;6.774;2023-11-21T05:57:12;115150.97;;;-141.28;48.12
12358;BME280;6243;51.244;6.774;2023-11-21T05:59:38;115150.97;;;-141.28;48.06
12358;BME280;6243;51.244;6.774;2023-11-21T06:02:03;115150.97;;;-141.28;48.26
12358;BME280;6243;51.244;6.774;2023-11-21T06:04:30;115150.97;;;-141.28;48.40
12358;BME280;6243;51.244;6.774;2023-11-21T06:06:56;115150.97;;;-141.28;48.40
12358;BME280;6243;51.244;6.774;2023-11-21T06:09:22;115150.97;;;-141.28;48.56
12358;BME280;6243;51.244;6.774;2023-11-21T06:11:47;115150.97;;;-141.28;48.53
12358;BME280;6243;51.244;6.774;2023-11-21T06:14:13;115150.97;;;-141.28;48.35
12358;BME280;6243;51.244;6.774;2023-11-21T06:16:38;115150.97;;;-141.28;48.46
12358;BME280;6243;51.244;6.774;2023-11-21T06:19:04;115150.97;;;-141.28;48.53
12358;BME280;6243;51.244;6.774;2023-11-21T06:21:31;115150.97;;;-141.28;48.53
12358;BME280;6243;51.244;6.774;2023-11-21T06:23:56;115150.97;;;-141.28;48.72
12358;BME280;6243;51.244;6.774;2023-11-21T06:26:22;115150.97;;;-141.28;48.64
12358;BME280;6243;51.244;6.774;2023-11-21T06:28:48;115150.97;;;-141.28;48.47
12358;BME280;6243;51.244;6.774;2023-11-21T06:31:13;115150.97;;;-141.28;48.55
12358;BME280;6243;51.244;6.774;2023-11-21T06:33:39;115150.97;;;-141.28;48.80
12358;BME280;6243;51.244;6.774;2023-11-21T06:36:05;115150.97;;;-141.28;48.71
12358;BME280;6243;51.244;6.774;2023-11-21T06:38:32;115150.97;;;-141.28;48.69
12358;BME280;6243;51.244;6.774;2023-11-21T06:40:58;115150.97;;;-141.28;48.69
12358;BME280;6243;51.244;6.774;2023-11-21T06:43:23;115150.97;;;-141.28;48.70
12358;BME280;6243;51.244;6.774;2023-11-21T06:45:49;115150.97;;;-141.28;48.78
12358;BME280;6243;51.244;6.774;2023-11-21T06:48:15;115150.97;;;-141.28;48.74
12358;BME280;6243;51.244;6.774;2023-11-21T06:50:40;115150.97;;;-141.28;48.91
12358;BME280;6243;51.244;6.774;2023-11-21T06:53:06;115150.97;;;-141.28;48.64
12358;BME280;6243;51.244;6.774;2023-11-21T06:55:33;115150.97;;;-141.28;48.63
12358;BME280;6243;51.244;6.774;2023-11-21T06:57:59;115150.97;;;-141.28;48.71
12358;BME280;6243;51.244;6.774;2023-11-21T07:00:25;115150.97;;;-141.28;48.97
12358;BME280;6243;51.244;6.774;2023-11-21T07:02:51;115150.97;;;-141.28;48.95
12358;BME280;6243;51.244;6.774;2023-11-21T07:05:17;115150.97;;;-141.28;48.96
12358;BME280;6243;51.244;6.774;2023-11-21T07:07:42;115150.97;;;-141.28;49.02
12358;BME280;6243;51.244;6.774;2023-11-21T07:10:08;115150.97;;;-141.28;49.22
12358;BME280;6243;51.244;6.774;2023-11-21T07:12:35;115150.97;;;-141.28;48.94
12358;BME280;6243;51.244;6.774;2023-11-21T07:15:01;115150.97;;;-141.28;49.04
12358;BME280;6243;51.244;6.774;2023-11-21T07:17:26;115150.97;;;-141.28;49.29
12358;BME280;6243;51.244;6.774;2023-11-21T07:19:52;115150.97;;;-141.28;49.23
12358;BME280;6243;51.244;6.774;2023-11-21T07:22:17;115150.97;;;-141.28;49.28
12358;BME280;6243;51.244;6.774;2023-11-21T07:24:43;115150.97;;;-141.28;49.26
12358;BME280;6243;51.244;6.774;2023-11-21T07:27:09;115150.97;;;-141.28;49.32
12358;BME280;6243;51.244;6.774;2023-11-21T07:29:36;115150.97;;;-141.28;49.30
12358;BME280;6243;51.244;6.774;2023-11-21T07:32:01;115150.97;;;-141.28;49.26
12358;BME280;6243;51.244;6.774;2023-11-21T07:34:27;115150.97;;;-141.28;49.28
12358;BME280;6243;51.244;6.774;2023-11-21T07:36:52;115150.97;;;-141.28;49.33
12358;BME280;6243;51.244;6.774;2023-11-21T07:39:18;115150.97;;;-141.28;49.45
12358;BME280;6243;51.244;6.774;2023-11-21T07:41:43;115150.97;;;-141.28;49.32
12358;BME280;6243;51.244;6.774;2023-11-21T07:44:09;115150.97;;;-141.28;49.14
12358;BME280;6243;51.244;6.774;2023-11-21T07:46:36;115150.97;;;-141.28;49.20
12358;BME280;6243;51.244;6.774;2023-11-21T07:49:02;115150.97;;;-141.28;49.23
12358;BME280;6243;51.244;6.774;2023-11-21T07:51:27;115150.97;;;-141.28;49.25
12358;BME280;6243;51.244;6.774;2023-11-21T07:53:53;115150.97;;;-141.28;49.42
12358;BME280;6243;51.244;6.774;2023-11-21T07:56:18;115150.97;;;-141.28;49.25
12358;BME280;6243;51.244;6.774;2023-11-21T07:58:44;115150.97;;;-141.28;49.25
12358;BME280;6243;51.244;6.774;2023-11-21T08:01:10;115150.97;;;-141.28;49.31
12358;BME280;6243;51.244;6.774;2023-11-21T08:03:37;115150.97;;;-141.28;49.16
12358;BME280;6243;51.244;6.774;2023-11-21T08:06:03;115150.97;;;-141.28;49.09
12358;BME280;6243;51.244;6.774;2023-11-21T08:08:28;115150.97;;;-141.28;49.17
12358;BME280;6243;51.244;6.774;2023-11-21T08:10:54;115150.97;;;-141.28;49.23
12358;BME280;6243;51.244;6.774;2023-11-21T08:13:20;115150.97;;;-141.28;49.25
12358;BME280;6243;51.244;6.774;2023-11-21T08:15:45;115150.97;;;-141.28;49.34
12358;BME280;6243;51.244;6.774;2023-11-21T08:18:11;115150.97;;;-141.28;49.58
12358;BME280;6243;51.244;6.774;2023-11-21T08:20:38;115150.97;;;-141.28;49.46
12358;BME280;6243;51.244;6.774;2023-11-21T08:23:04;115150.97;;;-141.28;49.45
12358;BME280;6243;51.244;6.774;2023-11-21T08:25:29;115150.97;;;-141.28;49.24
12358;BME280;6243;51.244;6.774;2023-11-21T08:27:55;115150.97;;;-141.28;49.30
12358;BME280;6243;51.244;6.774;2023-11-21T08:30:20;115150.97;;;-141.28;49.43
12358;BME280;6243;51.244;6.774;2023-11-21T08:32:46;115150.97;;;-141.28;49.25
12358;BME280;6243;51.244;6.774;2023-11-21T08:35:12;115150.97;;;-141.28;49.24
12358;BME280;6243;51.244;6.774;2023-11-21T08:37:39;115150.97;;;-141.28;49.30
12358;BME280;6243;51.244;6.774;2023-11-21T08:40:05;115150.97;;;-141.28;49.21
12358;BME280;6243;51.244;6.774;2023-11-21T08:42:31;115150.97;;;-141.28;49.35
12358;BME280;6243;51.244;6.774;2023-11-21T08:44:57;115150.97;;;-141.28;49.43
12358;BME280;6243;51.244;6.774;2023-11-21T08:47:22;115150.97;;;-141.28;49.23
12358;BME280;6243;51.244;6.774;2023-11-21T08:49:48;115150.97;;;-141.28;49.08
12358;BME280;6243;51.244;6.774;2023-11-21T08:52:13;115150.97;;;-141.28;48.96
12358;BME280;6243;51.244;6.774;2023-11-21T08:54:40;115150.97;;;-141.28;49.16
12358;BME280;6243;51.244;6.774;2023-11-21T08:57:06;115150.97;;;-141.28;48.91
12358;BME280;6243;51.244;6.774;2023-11-21T08:59:32;115150.97;;;-141.28;48.79
12358;BME280;6243;51.244;6.774;2023-11-21T09:01:57;115150.97;;;-141.28;48.75
12358;BME280;6243;51.244;6.774;2023-11-21T09:04:23;115150.97;;;-141.28;49.07
12358;BME280;6243;51.244;6.774;2023-11-21T09:06:48;115150.97;;;-141.28;49.03
12358;BME280;6243;51.244;6.774;2023-11-21T09:09:14;115150.97;;;-141.28;48.96
12358;BME280;6243;51.244;6.774;2023-11-21T09:11:41;115150.97;;;-141.28;48.85
12358;BME280;6243;51.244;6.774;2023-11-21T09:14:07;115150.97;;;-141.28;48.91
12358;BME280;6243;51.244;6.774;2023-11-21T09:16:32;115150.97;;;-141.28;48.83
12358;BME280;6243;51.244;6.774;2023-11-21T09:18:58;115150.97;;;-141.28;48.92
12358;BME280;6243;51.244;6.774;2023-11-21T09:21:24;115150.97;;;-141.28;48.88
12358;BME280;6243;51.244;6.774;2023-11-21T09:23:49;115150.97;;;-141.28;49.00
12358;BME280;6243;51.244;6.774;2023-11-21T09:26:15;115150.97;;;-141.28;49.07
12358;BME280;6243;51.244;6.774;2023-11-21T09:28:42;115150.97;;;-141.28;48.84
12358;BME280;6243;51.244;6.774;2023-11-21T09:31:07;115150.97;;;-141.28;48.80
12358;BME280;6243;51.244;6.774;2023-11-21T09:33:33;115150.97;;;-141.28;48.84
12358;BME280;6243;51.244;6.774;2023-11-21T09:35:59;115150.97;;;-141.28;48.90
12358;BME280;6243;51.244;6.774;2023-11-21T09:38:24;115150.97;;;-141.28;49.08
12358;BME280;6243;51.244;6.774;2023-11-21T09:40:50;115150.97;;;-141.28;48.98
12358;BME280;6243;51.244;6.774;2023-11-21T09:43:16;115150.97;;;-141.28;48.96
12358;BME280;6243;51.244;6.774;2023-11-21T09:45:45;115150.97;;;-141.28;49.05
12358;BME280;6243;51.244;6.774;2023-11-21T09:48:11;115150.97;;;-141.28;49.11
12358;BME280;6243;51.244;6.774;2023-11-21T09:50:37;115150.97;;;-141.28;49.10
12358;BME280;6243;51.244;6.774;2023-11-21T09:53:11;115150.97;;;-141.28;49.23
12358;BME280;6243;51.244;6.774;2023-11-21T09:55:41;115150.97;;;-141.28;49.30
12358;BME280;6243;51.244;6.774;2023-11-21T09:58:08;115150.97;;;-141.28;49.25
12358;BME280;6243;51.244;6.774;2023-11-21T10:00:34;115150.97;;;-141.28;49.12
12358;BME280;6243;51.244;6.774;2023-11-21T10:03:02;115150.97;;;-141.28;49.10
12358;BME280;6243;51.244;6.774;2023-11-21T10:05:27;115150.97;;;-141.28;49.15
12358;BME280;6243;51.244;6.774;2023-11-21T10:07:53;115150.97;;;-141.28;49.35
12358;BME280;6243;51.244;6.774;2023-11-21T10:10:22;115150.97;;;-141.28;49.41
12358;BME280;6243;51.244;6.774;2023-11-21T10:12:49;115150.97;;;-141.28;49.59
12358;BME280;6243;51.244;6.774;2023-11-21T10:15:16;115150.97;;;-141.28;49.31
12358;BME280;6243;51.244;6.774;2023-11-21T10:17:43;115150.97;;;-141.28;49.39
12358;BME280;6243;51.244;6.774;2023-11-21T10:20:11;115150.97;;;-141.28;49.05
12358;BME280;6243;51.244;6.774;2023-11-21T10:22:37;115150.97;;;-141.28;48.95
12358;BME280;6243;51.244;6.774;2023-11-21T10:25:04;115150.97;;;-141.28;49.23
12358;BME280;6243;51.244;6.774;2023-11-21T10:27:30;115150.97;;;-141.28;49.61
12358;BME280;6243;51.244;6.774;2023-11-21T10:29:56;115150.97;;;-141.28;49.60
12358;BME280;6243;51.244;6.774;2023-11-21T10:32:21;115150.97;;;-141.28;49.53
12358;BME280;6243;51.244;6.774;2023-11-21T10:34:55;115150.97;;;-141.28;49.20
12358;BME280;6243;51.244;6.774;2023-11-21T10:37:23;115150.97;;;-141.28;49.31
12358;BME280;6243;51.244;6.774;2023-11-21T10:39:48;115150.97;;;-141.28;49.23
12358;BME280;6243;51.244;6.774;2023-11-21T10:42:14;115150.97;;;-141.28;49.12
12358;BME280;6243;51.244;6.774;2023-11-21T10:44:41;115150.97;;;-141.28;49.30
12358;BME280;6243;51.244;6.774;2023-11-21T10:47:08;115150.97;;;-141.28;49.46
12358;BME280;6243;51.244;6.774;2023-11-21T10:49:34;115150.97;;;-141.28;49.43
12358;BME280;6243;51.244;6.774;2023-11-21T10:52:02;115150.97;;;-141.28;49.40
12358;BME280;6243;51.244;6.774;2023-11-21T10:54:29;115150.97;;;-141.28;49.38
12358;BME280;6243;51.244;6.774;2023-11-21T10:56:57;115150.97;;;-141.28;49.53
12358;BME280;6243;51.244;6.774;2023-11-21T10:59:23;115150.97;;;-141.28;49.44
12358;BME280;6243;51.244;6.774;2023-11-21T11:01:49;115150.97;;;-141.28;49.59
12358;BME280;6243;51.244;6.774;2023-11-21T11:04:18;115150.97;;;-141.28;49.59
12358;BME280;6243;51.244;6.774;2023-11-21T11:06:44;115150.97;;;-141.28;49.56
12358;BME280;6243;51.244;6.774;2023-11-21T11:09:13;115150.97;;;-141.28;49.56
12358;BME280;6243;51.244;6.774;2023-11-21T11:11:40;115150.97;;;-141.28;49.60
12358;BME280;6243;51.244;6.774;2023-11-21T11:14:06;115150.97;;;-141.28;49.65
12358;BME280;6243;51.244;6.774;2023-11-21T11:16:32;115150.97;;;-141.28;49.63
12358;BME280;6243;51.244;6.774;2023-11-21T11:18:58;115150.97;;;-141.28;49.68
12358;BME280;6243;51.244;6.774;2023-11-21T11:21:30;115150.97;;;-141.28;49.62
12358;BME280;6243;51.244;6.774;2023-11-21T11:24:11;115150.97;;;-141.28;49.57
12358;BME280;6243;51.244;6.774;2023-11-21T11:26:47;115150.97;;;-141.28;49.35
12358;BME280;6243;51.244;6.774;2023-11-21T11:29:23;115150.97;;;-141.28;49.35
12358;BME280;6243;51.244;6.774;2023-11-21T11:32:02;115150.97;;;-141.28;49.36
12358;BME280;6243;51.244;6.774;2023-11-21T11:34:33;115150.97;;;-141.28;49.35
12358;BME280;6243;51.244;6.774;2023-11-21T11:37:01;115150.97;;;-141.28;49.18
12358;BME280;6243;51.244;6.774;2023-11-21T11:39:28;115150.97;;;-141.28;48.74
12358;BME280;6243;51.244;6.774;2023-11-21T11:41:56;115150.97;;;-141.28;49.25
12358;BME280;6243;51.244;6.774;2023-11-21T11:44:47;115150.97;;;-141.28;49.17
12358;BME280;6243;51.244;6.774;2023-11-21T11:47:13;115150.97;;;-141.28;49.05
12358;BME280;6243;51.244;6.774;2023-11-21T11:49:55;115150.97;;;-141.28;48.73
12358;BME280;6243;51.244;6.774;2023-11-21T11:52:35;115150.97;;;-141.28;48.69
12358;BME280;6243;51.244;6.774;2023-11-21T11:55:02;115150.97;;;-141.28;48.42
12358;BME280;6243;51.244;6.774;2023-11-21T11:57:31;115150.97;;;-141.28;48.59
12358;BME280;6243;51.244;6.774;2023-11-21T12:00:10;115150.97;;;-141.28;48.36
12358;BME280;6243;51.244;6.774;2023-11-21T12:02:36;115150.97;;;-141.28;48.80
12358;BME280;6243;51.244;6.774;2023-11-21T12:05:08;115150.97;;;-141.28;48.60
12358;BME280;6243;51.244;6.774;2023-11-21T12:07:41;115150.97;;;-141.28;48.13
12358;BME280;6243;51.244;6.774;2023-11-21T12:10:07;115150.97;;;-141.28;48.50
12358;BME280;6243;51.244;6.774;2023-11-21T12:12:34;115150.97;;;-141.28;48.74
12358;BME280;6243;51.244;6.774;2023-11-21T12:14:59;115150.97;;;-141.28;48.80
12358;BME280;6243;51.244;6.774;2023-11-21T12:17:25;115150.97;;;-141.28;48.75
12358;BME280;6243;51.244;6.774;2023-11-21T12:19:51;115150.97;;;-141.28;48.69
12358;BME280;6243;51.244;6.774;2023-11-21T12:22:17;115150.97;;;-141.28;48.22
12358;BME280;6243;51.244;6.774;2023-11-21T12:24:43;115150.97;;;-141.28;48.52
12358;BME280;6243;51.244;6.774;2023-11-21T12:27:08;115150.97;;;-141.28;48.38
12358;BME280;6243;51.244;6.774;2023-11-21T12:29:35;115150.97;;;-141.28;48.42
12358;BME280;6243;51.244;6.774;2023-11-21T12:32:01;115150.97;;;-141.28;48.70
12358;BME280;6243;51.244;6.774;2023-11-21T12:34:27;115150.97;;;-141.28;48.42
12358;BME280;6243;51.244;6.774;2023-11-21T12:36:53;115150.97;;;-141.28;48.20